Time;durP1;ratioP1;P1;durP2;ratioP2;P2;SDS_P1;SDS_P2;PMS_P1;PMS_P2;Temp;Humidity;BMP_temperature;BMP_pressure;BME280_temperature;BME280_humidity;BME280_pressure;Samples;Min_cycle;Max_cycle;Signal;HPM_P1;HPM_P2
2023/01/03 00:00:44;;;;;;;3.07;2.97;;;;;;;8.73;94.04;97753.41;4977421;28;20220;-78
2023/01/03 00:03:13;;;;;;;4.00;3.80;;;;;;;8.58;95.29;97744.06;4975463;28;20704;-78
2023/01/03 00:05:41;;;;;;;4.30;4.10;;;;;;;8.55;95.78;97755.69;4977344;28;20550;-78
2023/01/03 00:08:07;;;;;;;4.93;4.73;;;;;;;8.64;94.96;97756.34;4976973;28;20200;-78
2023/01/03 00:10:32;;;;;;;5.10;4.90;;;;;;;8.66;95.08;97767.41;4976799;28;20252;-77
2023/01/03 00:12:57;;;;;;;5.20;5.00;;;;;;;8.76;94.79;97768.69;4977223;28;20188;-79
2023/01/03 00:15:22;;;;;;;5.40;5.20;;;;;;;8.68;95.06;97771.47;4976731;28;20192;-79
2023/01/03 00:17:50;;;;;;;4.40;4.20;;;;;;;8.65;95.25;97782.28;4959844;28;20192;-78
2023/01/03 00:20:15;;;;;;;4.40;4.20;;;;;;;8.58;95.52;97778.81;4976968;28;20211;-79
2023/01/03 00:22:41;;;;;;;4.63;4.43;;;;;;;8.65;95.62;97791.94;4976939;28;20677;-79
2023/01/03 00:25:06;;;;;;;4.47;4.27;;;;;;;8.66;95.52;97781.28;4976783;28;20184;-79
2023/01/03 00:27:31;;;;;;;4.10;3.90;;;;;;;8.77;94.88;97780.78;4976497;28;20552;-78
2023/01/03 00:29:57;;;;;;;4.33;4.13;;;;;;;8.72;95.10;97780.53;4959615;28;20184;-78
2023/01/03 00:32:22;;;;;;;4.27;4.07;;;;;;;8.79;94.54;97788.44;4976506;28;20212;-78
2023/01/03 00:34:47;;;;;;;4.50;4.30;;;;;;;8.64;96.02;97790.31;4959267;28;20212;-78
2023/01/03 00:37:13;;;;;;;4.40;4.20;;;;;;;8.65;95.76;97781.47;4976526;28;20227;-79
2023/01/03 00:39:40;;;;;;;4.27;4.17;;;;;;;8.73;95.42;97782.16;4976684;28;20185;-79
2023/01/03 00:42:05;;;;;;;4.80;4.60;;;;;;;8.70;96.15;97777.31;4976652;28;20200;-79
2023/01/03 00:44:31;;;;;;;4.23;4.03;;;;;;;8.75;95.65;97768.88;4976831;28;20544;-79
2023/01/03 00:46:57;;;;;;;3.53;3.40;;;;;;;8.61;96.32;97772.41;4975423;28;20207;-79
2023/01/03 00:49:22;;;;;;;4.37;4.17;;;;;;;8.56;97.21;97772.97;4976021;28;20275;-79
2023/01/03 00:51:48;;;;;;;4.13;4.00;;;;;;;8.54;97.04;97782.00;4975472;28;20199;-79
2023/01/03 00:54:15;;;;;;;4.23;4.03;;;;;;;8.55;96.57;97775.78;4976233;28;20211;-78
2023/01/03 00:56:43;;;;;;;3.83;3.70;;;;;;;8.60;96.35;97771.59;4976309;28;20173;-79
2023/01/03 00:59:09;;;;;;;3.10;3.00;;;;;;;8.58;96.58;97770.19;4976283;28;20199;-78
2023/01/03 01:01:38;;;;;;;3.37;3.27;;;;;;;8.55;97.15;97760.91;4974462;28;20287;-79
2023/01/03 01:04:08;;;;;;;3.30;3.20;;;;;;;8.50;97.13;97762.47;4974240;28;20189;-79
2023/01/03 01:06:38;;;;;;;3.43;3.30;;;;;;;8.45;97.42;97760.44;4975939;28;20253;-78
2023/01/03 01:09:05;;;;;;;3.13;3.03;;;;;;;8.53;97.02;97760.28;4975791;28;20691;-79
2023/01/03 01:11:30;;;;;;;3.67;3.47;;;;;;;8.39;97.79;97757.75;4975899;28;20185;-79
2023/01/03 01:13:56;;;;;;;3.80;3.70;;;;;;;8.62;96.35;97760.97;4975611;28;20548;-79
2023/01/03 01:16:25;;;;;;;4.17;3.97;;;;;;;8.61;96.74;97764.56;4975776;28;20191;-79
2023/01/03 01:18:52;;;;;;;4.30;4.10;;;;;;;8.40;97.76;97772.44;4975813;28;20188;-79
2023/01/03 01:21:21;;;;;;;4.37;4.17;;;;;;;8.45;97.55;97775.28;4976013;28;20207;-78
2023/01/03 01:23:47;;;;;;;4.33;4.13;;;;;;;8.44;97.93;97782.31;4975708;28;20193;-79
2023/01/03 01:26:20;;;;;;;4.13;3.97;;;;;;;8.35;98.28;97778.25;4975705;28;20670;-79
2023/01/03 01:28:46;;;;;;;5.47;5.17;;;;;;;8.22;99.54;97773.66;4975957;28;20212;-79
2023/01/03 01:31:15;;;;;;;5.83;5.37;;;;;;;8.36;99.01;97785.06;4975294;28;20196;-79
2023/01/03 01:33:41;;;;;;;4.23;4.03;;;;;;;8.30;99.93;97789.22;4975399;28;20192;-79
2023/01/03 01:36:27;;;;;;;4.57;4.27;;;;;;;8.28;99.71;97782.56;4957903;28;20188;-79
2023/01/03 01:38:56;;;;;;;4.00;3.80;;;;;;;8.33;99.82;97781.03;4966467;28;20181;-79
2023/01/03 01:46:51;;;;;;;3.47;3.27;;;;;;;8.19;100.00;97786.28;4975405;28;20223;-79
2023/01/03 01:49:24;;;;;;;3.57;3.37;;;;;;;8.19;100.00;97781.06;4975237;28;20189;-79
2023/01/03 01:51:50;;;;;;;3.20;3.00;;;;;;;8.26;100.00;97792.38;4975004;28;20199;-79
2023/01/03 01:54:17;;;;;;;3.00;2.90;;;;;;;8.13;100.00;97798.28;4974927;28;20184;-78
2023/01/03 01:56:49;;;;;;;3.20;3.10;;;;;;;8.02;100.00;97803.19;4975206;28;20272;-79
2023/01/03 01:59:15;;;;;;;3.20;3.10;;;;;;;8.08;100.00;97808.47;4975067;28;20196;-77
2023/01/03 02:01:43;;;;;;;3.00;2.90;;;;;;;8.05;100.00;97803.63;4973714;28;20200;-79
2023/01/03 02:04:14;;;;;;;3.20;3.00;;;;;;;8.32;100.00;97799.50;4973616;28;20271;-78
2023/01/03 02:06:40;;;;;;;3.03;2.93;;;;;;;8.12;100.00;97798.47;4975221;28;20216;-78
2023/01/03 02:09:06;;;;;;;3.23;3.13;;;;;;;8.05;100.00;97801.00;4957716;28;20212;-79
2023/01/03 02:11:43;;;;;;;3.43;3.33;;;;;;;7.94;100.00;97802.31;4974927;28;20185;-78
2023/01/03 02:14:45;;;;;;;3.27;3.10;;;;;;;7.93;100.00;97799.88;4974162;28;20169;-79
2023/01/03 02:17:29;;;;;;;3.63;3.53;;;;;;;7.99;100.00;97799.13;4974968;28;20197;-78
2023/01/03 02:20:11;;;;;;;3.70;3.50;;;;;;;8.03;100.00;97802.19;4975232;28;20203;-79
2023/01/03 02:23:06;;;;;;;3.53;3.43;;;;;;;8.12;100.00;97798.47;4974674;28;20191;-78
2023/01/03 02:25:45;;;;;;;3.87;3.73;;;;;;;8.10;100.00;97800.44;4974159;28;20302;-79
2023/01/03 02:28:52;;;;;;;4.00;3.90;;;;;;;8.21;100.00;97806.00;4974637;28;20655;-78
2023/01/03 02:31:40;;;;;;;3.90;3.70;;;;;;;8.15;100.00;97806.72;4947505;28;20202;-79
2023/01/03 02:34:12;;;;;;;4.43;4.23;;;;;;;8.05;100.00;97803.63;4974610;28;20189;-79
2023/01/03 02:36:46;;;;;;;4.10;3.90;;;;;;;7.99;100.00;97808.78;4973374;28;20223;-79
2023/01/03 02:39:36;;;;;;;4.63;4.43;;;;;;;7.93;100.00;97805.09;4974625;28;20709;-79
2023/01/03 02:45:02;;;;;;;5.27;5.00;;;;;;;7.94;100.00;97801.50;4974509;28;20176;-78
2023/01/03 02:47:29;;;;;;;4.63;4.43;;;;;;;7.83;100.00;97800.19;4974059;28;20196;-79
2023/01/03 02:50:01;;;;;;;4.17;3.97;;;;;;;7.80;100.00;97795.31;4974372;28;20188;-76
2023/01/03 02:52:28;;;;;;;3.90;3.60;;;;;;;7.81;100.00;97798.72;4973274;28;20185;-76
2023/01/03 02:55:13;;;;;;;3.77;3.67;;;;;;;7.71;100.00;97790.41;4956367;28;20221;-76
2023/01/03 02:57:53;;;;;;;4.40;4.20;;;;;;;7.69;100.00;97793.19;4974446;28;20181;-76
2023/01/03 03:00:23;;;;;;;4.80;4.60;;;;;;;7.78;100.00;97804.34;4973636;28;20204;-76
2023/01/03 03:02:54;;;;;;;4.93;4.63;;;;;;;7.75;100.00;97807.28;4971815;28;20264;-76
2023/01/03 03:05:24;;;;;;;5.93;5.67;;;;;;;7.70;100.00;97820.09;4974260;28;20181;-76
2023/01/03 03:07:50;;;;;;;5.67;5.40;;;;;;;7.62;100.00;97820.19;4974343;28;20197;-76
2023/01/03 03:13:13;;;;;;;6.27;5.97;;;;;;;7.67;100.00;97823.88;4973638;28;20615;-77
2023/01/03 03:15:48;;;;;;;6.23;5.93;;;;;;;7.72;100.00;97807.66;4974253;28;20227;-76
2023/01/03 03:18:32;;;;;;;6.17;5.87;;;;;;;7.66;100.00;97813.63;4973691;28;20188;-77
2023/01/03 03:26:38;;;;;;;5.00;4.60;;;;;;;7.71;100.00;97803.44;4974011;28;20622;-76
2023/01/03 03:29:12;;;;;;;4.13;4.03;;;;;;;7.75;100.00;97796.84;4973697;28;20643;-77
2023/01/03 03:31:41;;;;;;;5.00;4.80;;;;;;;7.62;100.00;97792.31;4974153;28;20233;-77
2023/01/03 03:34:23;;;;;;;4.70;4.50;;;;;;;7.72;100.00;97777.16;4973705;28;20669;-76
2023/01/03 03:36:56;;;;;;;5.00;4.03;;;;;;;7.72;100.00;97781.56;4973394;28;20188;-77
2023/01/03 03:45:48;;;;;;;4.70;4.50;;;;;;;7.61;100.00;97793.31;4973640;28;20172;-77
2023/01/03 03:48:22;;;;;;;5.20;4.90;;;;;;;7.49;100.00;97794.75;4921833;28;20287;-77
2023/01/03 03:50:56;;;;;;;5.13;4.90;;;;;;;7.52;100.00;97797.00;4955291;28;20184;-77
2023/01/03 03:53:26;;;;;;;6.00;5.60;;;;;;;7.62;100.00;97807.97;4973024;28;20194;-76
2023/01/03 03:55:57;;;;;;;6.67;6.27;;;;;;;7.49;100.00;97802.56;4973594;28;20229;-76
2023/01/03 03:58:29;;;;;;;7.10;6.70;;;;;;;7.42;100.00;97814.72;4973032;28;20188;-77
2023/01/03 04:00:56;;;;;;;5.53;5.23;;;;;;;7.52;100.00;97810.06;4972085;28;20489;-77
2023/01/03 04:03:23;;;;;;;5.50;5.20;;;;;;;7.48;100.00;97811.38;4972804;28;20177;-77
2023/01/03 04:05:54;;;;;;;6.27;5.97;;;;;;;7.31;100.00;97810.78;4973763;28;20181;-77
2023/01/03 04:08:20;;;;;;;6.60;6.20;;;;;;;7.37;100.00;97819.66;4956076;28;20232;-76
2023/01/03 04:10:45;;;;;;;7.40;7.07;;;;;;;7.28;100.00;97812.94;4973170;28;20208;-77
2023/01/03 04:13:10;;;;;;;6.73;6.43;;;;;;;7.25;100.00;97814.09;4973013;28;20200;-77
2023/01/03 04:15:36;;;;;;;9.47;9.00;;;;;;;7.16;100.00;97816.97;4972860;28;20192;-77
2023/01/03 04:18:01;;;;;;;9.37;8.97;;;;;;;7.15;100.00;97821.38;4973620;28;20682;-77
2023/01/03 04:20:27;;;;;;;6.33;5.77;;;;;;;7.06;100.00;97817.25;4973351;28;20217;-77
2023/01/03 04:22:52;;;;;;;6.27;5.77;;;;;;;7.04;100.00;97816.59;4973264;28;20547;-77
2023/01/03 04:25:18;;;;;;;6.40;6.00;;;;;;;6.92;100.00;97824.06;4973282;28;20181;-77
2023/01/03 04:27:43;;;;;;;6.40;6.00;;;;;;;6.92;100.00;97820.63;4973037;28;20725;-77
2023/01/03 04:30:10;;;;;;;5.30;4.90;;;;;;;6.88;100.00;97821.97;4956077;28;20674;-77
2023/01/03 04:32:35;;;;;;;4.40;4.17;;;;;;;6.97;100.00;97823.50;4973350;28;20280;-77
2023/01/03 04:35:01;;;;;;;3.73;3.53;;;;;;;6.87;100.00;97817.75;4955533;28;20328;-77
2023/01/03 04:37:26;;;;;;;4.57;4.13;;;;;;;6.96;100.00;97820.13;4976791;28;20287;-77
2023/01/03 04:39:52;;;;;;;7.70;7.10;;;;;;;6.88;100.00;97819.38;4976469;28;20184;-77
2023/01/03 04:45:01;;;;;;;4.20;4.00;;;;;;;6.84;100.00;97818.94;4976130;28;20179;-76
2023/01/03 04:47:27;;;;;;;5.00;4.70;;;;;;;6.84;100.00;97821.53;4976047;28;20205;-76
2023/01/03 04:49:52;;;;;;;4.67;4.43;;;;;;;6.85;100.00;97823.16;4976379;28;20181;-77
2023/01/03 04:52:17;;;;;;;5.40;5.07;;;;;;;6.82;100.00;97830.50;4974644;28;20196;-77
2023/01/03 04:54:43;;;;;;;4.67;4.47;;;;;;;6.78;100.00;97831.84;4975670;28;20666;-77
2023/01/03 04:57:09;;;;;;;4.03;3.83;;;;;;;6.95;100.00;97828.94;4975958;28;20279;-77
2023/01/03 04:59:35;;;;;;;4.57;4.27;;;;;;;6.94;100.00;97829.91;4958664;28;20209;-76
2023/01/03 05:02:01;;;;;;;5.40;5.00;;;;;;;6.95;100.00;97835.94;4973587;28;20627;-77
2023/01/03 05:04:27;;;;;;;5.63;5.17;;;;;;;6.87;100.00;97834.19;4976272;28;20271;-77
2023/01/03 05:06:54;;;;;;;5.07;4.77;;;;;;;6.85;100.00;97828.38;4975872;28;20326;-78
2023/01/03 05:09:19;;;;;;;5.30;4.90;;;;;;;6.91;100.00;97827.63;4976171;28;20192;-77
2023/01/03 05:11:45;;;;;;;5.27;4.80;;;;;;;6.99;100.00;97831.97;4976391;28;20180;-77
2023/01/03 05:14:10;;;;;;;4.57;4.37;;;;;;;7.06;100.00;97825.06;4975987;28;20192;-77
2023/01/03 05:16:35;;;;;;;4.60;4.30;;;;;;;7.09;100.00;97822.91;4976023;28;20631;-77
2023/01/03 05:19:01;;;;;;;4.20;4.00;;;;;;;6.99;100.00;97830.19;4975946;28;20636;-77
2023/01/03 05:26:57;;;;;;;4.30;4.10;;;;;;;7.02;100.00;97829.03;4975497;28;20581;-77
2023/01/03 05:29:22;;;;;;;4.57;4.33;;;;;;;6.97;100.00;97837.34;4976055;28;20551;-77
2023/01/03 05:31:48;;;;;;;3.97;3.77;;;;;;;6.96;100.00;97833.16;4975652;28;20183;-77
2023/01/03 05:34:14;;;;;;;4.23;4.03;;;;;;;6.95;100.00;97834.13;4975703;28;20288;-77
2023/01/03 05:36:39;;;;;;;4.10;3.87;;;;;;;6.96;100.00;97835.75;4975840;28;20193;-77
2023/01/03 05:39:05;;;;;;;4.43;4.10;;;;;;;6.88;100.00;97832.41;4975440;28;20204;-77
2023/01/03 05:44:14;;;;;;;4.03;3.83;;;;;;;6.80;100.00;97837.72;4975741;28;20207;-77
2023/01/03 05:46:40;;;;;;;4.30;4.10;;;;;;;6.84;100.00;97838.97;4974214;28;20679;-77
2023/01/03 05:49:05;;;;;;;4.50;4.30;;;;;;;6.81;100.00;97842.72;4974840;28;20196;-77
2023/01/03 05:51:31;;;;;;;4.47;4.17;;;;;;;6.71;100.00;97851.78;4974503;28;20276;-77
2023/01/03 05:53:56;;;;;;;4.37;4.17;;;;;;;6.73;100.00;97850.63;4975003;28;20180;-77
2023/01/03 05:56:22;;;;;;;4.63;4.33;;;;;;;6.72;100.00;97854.22;4974871;28;20576;-76
2023/01/03 05:58:48;;;;;;;5.20;4.80;;;;;;;6.80;100.00;97846.31;4974928;28;20185;-76
2023/01/03 06:01:14;;;;;;;5.40;4.90;;;;;;;6.78;100.00;97850.91;4973247;28;20189;-77
2023/01/03 06:03:42;;;;;;;5.73;5.33;;;;;;;6.68;100.00;97852.94;4956893;28;20177;-78
2023/01/03 06:06:08;;;;;;;5.67;5.33;;;;;;;6.70;100.00;97856.16;4957198;28;20674;-78
2023/01/03 06:08:34;;;;;;;5.47;5.17;;;;;;;6.62;100.00;97866.66;4974585;28;20205;-78
2023/01/03 06:11:04;;;;;;;5.20;4.90;;;;;;;6.68;100.00;97865.97;4974927;28;20330;-78
2023/01/03 06:13:29;;;;;;;5.03;4.73;;;;;;;6.72;100.00;97869.84;4974860;28;20189;-78
2023/01/03 06:18:45;;;;;;;5.73;5.33;;;;;;;6.59;100.00;97869.59;4974428;28;20192;-78
2023/01/03 06:21:10;;;;;;;4.87;4.57;;;;;;;6.62;100.00;97859.66;4974410;28;20192;-78
2023/01/03 06:23:35;;;;;;;5.47;5.17;;;;;;;6.51;100.00;97865.28;4974782;28;20188;-78
2023/01/03 06:26:02;;;;;;;6.07;5.67;;;;;;;6.58;100.00;97863.59;4974414;28;20640;-78
2023/01/03 06:28:27;;;;;;;5.57;5.10;;;;;;;6.48;100.00;97865.63;4973559;28;20566;-77
2023/01/03 06:30:53;;;;;;;5.43;5.13;;;;;;;6.55;100.00;97865.75;4974038;28;20223;-78
2023/01/03 06:33:18;;;;;;;5.57;5.07;;;;;;;6.58;100.00;97874.00;4974608;28;20187;-78
2023/01/03 06:35:43;;;;;;;5.93;5.37;;;;;;;6.48;100.00;97872.63;4974212;28;20188;-78
2023/01/03 06:38:09;;;;;;;5.03;4.83;;;;;;;6.48;100.00;97880.44;4974310;28;20212;-78
2023/01/03 06:40:34;;;;;;;5.33;5.03;;;;;;;6.49;100.00;97887.25;4957275;28;20280;-77
2023/01/03 06:43:00;;;;;;;5.60;5.13;;;;;;;6.45;100.00;97886.00;4974220;28;20189;-78
2023/01/03 06:53:40;;;;;;;5.77;5.27;;;;;;;6.34;100.00;97887.22;4974542;28;20647;-77
2023/01/03 06:56:06;;;;;;;5.73;5.33;;;;;;;6.36;100.00;97882.63;4974418;28;20232;-78
2023/01/03 06:58:31;;;;;;;4.83;4.53;;;;;;;6.42;100.00;97886.31;4973778;28;20184;-76
2023/01/03 07:01:01;;;;;;;8.60;5.20;;;;;;;6.41;100.00;97895.16;4965213;28;20181;-77
2023/01/03 07:03:27;;;;;;;5.77;5.27;;;;;;;6.53;100.00;97891.13;4973618;28;20729;-78
2023/01/03 07:05:52;;;;;;;5.50;5.13;;;;;;;6.53;100.00;97897.16;4974527;28;20189;-73
2023/01/03 07:08:17;;;;;;;5.70;5.37;;;;;;;6.53;100.00;97906.75;4960730;28;20205;-76
2023/01/03 07:10:43;;;;;;;5.93;5.43;;;;;;;6.46;100.00;97898.84;4973516;28;20181;-73
2023/01/03 07:15:52;;;;;;;6.50;6.20;;;;;;;6.38;100.00;97901.50;4972230;28;20654;-73
2023/01/03 07:18:17;;;;;;;5.87;5.57;;;;;;;6.43;100.00;97906.19;4972864;28;20197;-74
2023/01/03 07:20:43;;;;;;;6.43;5.93;;;;;;;6.41;100.00;97915.97;4973843;28;20198;-73
2023/01/03 07:23:09;;;;;;;6.30;5.90;;;;;;;6.37;100.00;97910.28;4973157;28;20180;-75
2023/01/03 07:25:34;;;;;;;6.63;6.23;;;;;;;6.09;100.00;97919.56;4973471;28;20816;-76
2023/01/03 07:28:00;;;;;;;6.30;5.80;;;;;;;6.05;100.00;97913.88;4973647;28;20211;-73
2023/01/03 07:30:25;;;;;;;5.87;5.30;;;;;;;6.13;100.00;97915.66;4974015;28;20193;-75
2023/01/03 07:32:50;;;;;;;6.47;6.07;;;;;;;6.07;100.00;97917.13;4973911;28;20189;-74
2023/01/03 07:35:16;;;;;;;5.73;5.37;;;;;;;6.08;100.00;97918.75;4973430;28;20259;-74
2023/01/03 07:37:41;;;;;;;6.20;5.80;;;;;;;5.95;100.00;97921.09;4973415;28;20276;-74
2023/01/03 07:40:07;;;;;;;6.10;5.60;;;;;;;5.93;100.00;97920.44;4973615;28;20275;-75
2023/01/03 07:45:16;;;;;;;6.20;5.80;;;;;;;6.03;100.00;97926.25;4972624;28;20183;-74
2023/01/03 07:47:45;;;;;;;6.63;6.23;;;;;;;6.06;100.00;97931.13;4956516;28;20204;-75
2023/01/03 07:50:11;;;;;;;7.60;7.20;;;;;;;6.16;100.00;97921.31;4975335;28;20212;-75
2023/01/03 07:52:36;;;;;;;7.50;7.10;;;;;;;6.19;100.00;97931.38;4954120;28;20504;-74
2023/01/03 07:55:02;;;;;;;7.13;6.63;;;;;;;6.26;100.00;97927.09;4954321;28;20237;-75
2023/01/03 07:57:28;;;;;;;7.60;7.13;;;;;;;6.46;100.00;97934.50;4959512;28;20197;-75
2023/01/03 07:59:53;;;;;;;6.80;6.37;;;;;;;6.44;100.00;97936.44;4961078;28;20849;-75
2023/01/03 08:02:19;;;;;;;8.00;5.87;;;;;;;6.50;100.00;97935.78;4962191;28;20202;-74
2023/01/03 08:04:44;;;;;;;7.90;7.27;;;;;;;6.51;100.00;97935.59;4960379;28;20197;-74
2023/01/03 08:07:10;;;;;;;6.43;6.03;;;;;;;6.48;100.00;97938.53;4954052;28;20236;-76
2023/01/03 08:15:03;;;;;;;5.63;5.13;;;;;;;6.84;100.00;97943.19;4963357;28;20208;-74
2023/01/03 08:17:29;;;;;;;5.20;4.80;;;;;;;6.96;100.00;97944.41;4975549;28;20644;-75
2023/01/03 08:19:54;;;;;;;6.13;5.53;;;;;;;7.03;100.00;97948.72;4959000;28;20228;-74
2023/01/03 08:22:19;;;;;;;5.30;4.90;;;;;;;7.09;100.00;97947.22;4976343;28;20199;-74
2023/01/03 08:24:45;;;;;;;4.87;4.57;;;;;;;7.09;100.00;97944.59;4976841;28;20200;-76
2023/01/03 08:27:10;;;;;;;6.60;5.90;;;;;;;7.16;100.00;97949.94;4976358;28;20200;-76
2023/01/03 08:29:35;;;;;;;5.63;5.13;;;;;;;7.28;100.00;97945.91;4976598;28;20185;-75
2023/01/03 08:32:01;;;;;;;5.30;4.87;;;;;;;7.38;100.00;97949.09;4977158;28;20180;-75
2023/01/03 08:34:30;;;;;;;5.03;4.63;;;;;;;7.44;100.00;97949.19;4961495;28;20223;-76
2023/01/03 08:37:01;;;;;;;5.13;4.80;;;;;;;7.58;100.00;97941.56;4957324;29;20633;-75
2023/01/03 08:39:32;;;;;;;4.90;4.50;;;;;;;7.53;100.00;97942.88;4957261;29;20169;-75
2023/01/03 08:42:01;;;;;;;4.93;4.43;;;;;;;7.55;100.00;97947.94;4957846;29;20244;-75
2023/01/03 08:44:30;;;;;;;4.80;4.50;;;;;;;7.54;100.00;97954.13;4957601;29;20185;-76
2023/01/03 08:46:58;;;;;;;7.37;6.77;;;;;;;7.69;100.00;97954.94;4956861;29;20651;-75
2023/01/03 08:49:25;;;;;;;7.13;6.53;;;;;;;7.55;100.00;97960.16;4956889;29;20193;-75
2023/01/03 08:51:50;;;;;;;9.07;8.30;;;;;;;7.50;100.00;97963.31;4975206;28;20196;-75
2023/01/03 08:54:15;;;;;;;10.73;10.03;;;;;;;7.45;100.00;97969.06;4974440;28;20192;-75
2023/01/03 08:56:42;;;;;;;9.30;8.80;;;;;;;7.67;100.00;97967.38;4939217;29;20190;-74
2023/01/03 08:59:07;;;;;;;5.30;4.90;;;;;;;7.75;100.00;97972.50;4954402;29;20194;-75
2023/01/03 09:01:33;;;;;;;4.07;3.87;;;;;;;7.67;100.00;97975.22;4955778;29;20248;-76
2023/01/03 09:03:58;;;;;;;4.60;4.30;;;;;;;7.79;100.00;97971.19;4955793;29;20188;-76
2023/01/03 09:06:24;;;;;;;4.17;3.87;;;;;;;7.85;100.00;97969.66;4956636;29;20181;-76
2023/01/03 09:08:49;;;;;;;4.40;4.10;;;;;;;7.85;100.00;97962.63;4949238;29;20625;-76
2023/01/03 09:11:14;;;;;;;6.83;5.57;;;;;;;7.96;100.00;97979.66;4952339;29;20200;-76
2023/01/03 09:13:40;;;;;;;8.00;6.73;;;;;;;7.87;100.00;97984.13;4939716;29;20177;-76
2023/01/03 09:16:08;;;;;;;7.50;5.27;;;;;;;8.03;100.00;97970.06;4939613;29;20193;-76
2023/01/03 09:18:35;;;;;;;3.73;3.53;;;;;;;8.03;100.00;97982.31;4956786;29;20217;-77
2023/01/03 09:21:02;;;;;;;3.80;3.60;;;;;;;8.00;100.00;97985.31;4939585;29;20193;-79
2023/01/03 09:23:28;;;;;;;5.33;4.93;;;;;;;7.91;100.00;97989.81;4938395;29;20185;-76
2023/01/03 09:25:53;;;;;;;6.33;5.93;;;;;;;8.03;100.00;97983.13;4956649;29;20244;-77
2023/01/03 09:28:18;;;;;;;6.33;5.93;;;;;;;8.03;100.00;97982.31;4956242;29;20208;-76
2023/01/03 09:30:44;;;;;;;5.07;4.77;;;;;;;8.07;100.00;97989.63;4956507;29;20189;-76
2023/01/03 09:33:09;;;;;;;4.03;3.83;;;;;;;8.22;100.00;97992.22;4956363;29;20184;-77
2023/01/03 09:35:38;;;;;;;4.13;3.93;;;;;;;8.24;100.00;98000.69;4956389;29;20193;-77
2023/01/03 09:38:04;;;;;;;4.37;3.97;;;;;;;8.15;100.00;97997.34;4956484;29;20185;-78
2023/01/03 09:40:31;;;;;;;4.07;3.77;;;;;;;8.54;100.00;98006.69;4956119;29;20633;-78
2023/01/03 09:43:14;;;;;;;4.10;3.90;;;;;;;8.39;100.00;98001.50;4956380;29;20232;-78
2023/01/03 09:45:50;;;;;;;4.50;4.20;;;;;;;8.32;100.00;98005.84;4956493;29;20207;-78
2023/01/03 09:48:22;;;;;;;5.77;5.20;;;;;;;8.56;100.00;98005.53;4919796;29;20281;-77
2023/01/03 09:50:47;;;;;;;5.93;5.43;;;;;;;8.44;100.00;98009.59;4948186;28;20212;-78
2023/01/03 10:05:21;;;;;;;5.70;5.40;;;;;;;8.41;100.00;98004.75;4955494;29;20197;-79
2023/01/03 10:08:06;;;;;;;6.77;5.67;;;;;;;8.63;98.92;98008.22;4955277;29;20692;-80
2023/01/03 10:10:50;;;;;;;5.70;5.30;;;;;;;8.41;100.00;98002.16;4950272;29;20209;-78
2023/01/03 10:13:34;;;;;;;4.70;4.40;;;;;;;8.50;98.86;98008.88;4936253;29;20182;-77
2023/01/03 10:16:18;;;;;;;6.07;5.33;;;;;;;8.61;98.27;97999.75;4945341;29;20217;-77
2023/01/03 10:18:59;;;;;;;5.40;5.10;;;;;;;8.64;97.19;98008.03;4937952;29;20236;-77
2023/01/03 10:22:03;;;;;;;5.30;5.00;;;;;;;8.55;97.98;98016.16;4955938;29;20192;-77
2023/01/03 10:24:42;;;;;;;6.10;5.73;;;;;;;8.54;98.49;98014.53;4926371;29;20288;-77
2023/01/03 10:27:22;;;;;;;5.77;5.43;;;;;;;8.48;97.69;98013.47;4955303;29;20204;-78
2023/01/03 10:29:55;;;;;;;5.23;4.90;;;;;;;8.54;96.52;98006.69;4955400;29;20165;-77
2023/01/03 10:32:42;;;;;;;6.83;4.80;;;;;;;8.59;96.81;98006.97;4955067;29;20637;-77
2023/01/03 10:35:22;;;;;;;4.73;4.43;;;;;;;8.56;98.12;98002.94;4955075;28;20173;-77
2023/01/03 10:37:51;;;;;;;5.67;5.27;;;;;;;8.40;100.00;98002.31;4955202;29;20270;-77
2023/01/03 10:40:17;;;;;;;6.33;5.73;;;;;;;8.26;100.00;98009.13;4955120;29;20178;-77
2023/01/03 10:42:44;;;;;;;7.43;6.93;;;;;;;8.34;100.00;98003.88;4955291;29;20193;-77
2023/01/03 10:45:14;;;;;;;5.90;5.50;;;;;;;8.26;100.00;97996.91;4955152;29;20189;-76
2023/01/03 10:47:40;;;;;;;5.33;4.87;;;;;;;8.07;100.00;98000.06;4938657;29;20205;-77
2023/01/03 10:50:07;;;;;;;7.67;7.07;;;;;;;8.22;100.00;97994.84;4955340;28;20694;-76
2023/01/03 10:52:40;;;;;;;7.97;7.27;;;;;;;8.29;100.00;97995.75;4955035;29;20220;-77
2023/01/03 10:55:15;;;;;;;7.03;6.43;;;;;;;8.37;100.00;97989.63;4963022;28;20347;-78
2023/01/03 10:57:42;;;;;;;6.53;6.03;;;;;;;8.45;100.00;97989.53;4972634;28;20230;-79
2023/01/03 11:00:26;;;;;;;5.70;5.27;;;;;;;8.50;100.00;97987.16;4955632;28;20242;-78
2023/01/03 11:02:53;;;;;;;7.10;6.50;;;;;;;8.53;100.00;97977.16;4972185;28;20196;-78
2023/01/03 11:05:22;;;;;;;5.90;5.50;;;;;;;8.49;100.00;97973.28;4973945;28;20307;-77
2023/01/03 11:08:00;;;;;;;6.20;5.80;;;;;;;8.29;100.00;97982.69;4974169;28;20252;-76
2023/01/03 11:10:37;;;;;;;5.97;5.53;;;;;;;8.48;100.00;97968.25;4973769;28;20285;-78
2023/01/03 11:13:20;;;;;;;6.53;6.00;;;;;;;8.53;100.00;97969.31;4956656;28;20181;-77
2023/01/03 11:15:45;;;;;;;7.67;6.60;;;;;;;8.52;100.00;97974.75;4967695;28;20251;-78
2023/01/03 11:18:19;;;;;;;6.13;5.67;;;;;;;8.63;100.00;97969.03;4973364;28;20192;-78
2023/01/03 11:21:21;;;;;;;6.17;5.67;;;;;;;8.60;100.00;97967.59;4963598;28;20240;-78
2023/01/03 11:24:17;;;;;;;6.10;5.77;;;;;;;8.56;100.00;97968.16;4974004;28;20267;-78
2023/01/03 11:27:12;;;;;;;5.30;4.90;;;;;;;8.63;100.00;97967.22;4973983;28;20650;-77
2023/01/03 11:30:02;;;;;;;6.57;6.07;;;;;;;8.58;100.00;97966.94;4974128;28;20177;-79
2023/01/03 11:32:52;;;;;;;6.17;5.67;;;;;;;8.83;96.82;97964.00;4973945;28;20616;-77
2023/01/03 11:35:55;;;;;;;7.20;6.70;;;;;;;8.87;96.17;97962.63;4973473;28;20184;-78
2023/01/03 11:38:26;;;;;;;6.10;5.60;;;;;;;8.97;96.07;97966.53;4954323;29;20184;-78
2023/01/03 11:41:32;;;;;;;6.03;5.43;;;;;;;8.92;96.57;97965.47;4954622;29;20190;-80
2023/01/03 11:44:07;;;;;;;5.47;5.17;;;;;;;8.93;95.22;97957.47;4954224;29;20244;-80
2023/01/03 11:46:53;;;;;;;6.10;5.80;;;;;;;8.96;94.93;97956.28;4957011;28;20184;-79
2023/01/03 11:50:12;;;;;;;7.87;6.63;;;;;;;8.99;95.75;97954.09;4961756;28;20193;-79
2023/01/03 11:52:55;;;;;;;6.80;6.30;;;;;;;9.03;94.09;97949.28;4917866;29;20242;-79
2023/01/03 11:55:27;;;;;;;7.77;7.27;;;;;;;9.11;94.00;97946.56;4917678;29;20278;-79
2023/01/03 11:58:20;;;;;;;6.33;5.93;;;;;;;9.07;93.95;97947.94;4916210;29;20270;-79
2023/01/03 12:01:03;;;;;;;4.60;4.40;;;;;;;9.05;92.61;97955.97;4917347;29;20193;-79
2023/01/03 12:03:34;;;;;;;6.00;5.40;;;;;;;9.13;91.58;97950.63;4907706;29;20206;-80
2023/01/03 12:06:32;;;;;;;5.13;4.80;;;;;;;9.12;91.26;97941.16;4917929;29;20194;-80
2023/01/03 12:09:11;;;;;;;5.13;4.80;;;;;;;9.23;91.75;97946.84;4853013;29;20631;-79
2023/01/03 12:11:49;;;;;;;3.60;3.33;;;;;;;9.33;89.64;97945.53;4917762;29;20740;-79
2023/01/03 12:14:40;;;;;;;4.23;3.93;;;;;;;9.41;87.92;97939.34;4917865;29;20173;-79
2023/01/03 12:17:32;;;;;;;4.60;4.33;;;;;;;9.51;87.26;97948.50;4917842;29;20199;-77
2023/01/03 12:20:02;;;;;;;6.07;5.67;;;;;;;9.55;86.98;97944.47;4916549;29;20701;-77
2023/01/03 12:22:37;;;;;;;7.17;6.67;;;;;;;9.66;87.34;97939.72;4921527;29;20201;-76
2023/01/03 12:25:19;;;;;;;6.00;5.50;;;;;;;9.74;88.50;97937.75;4957689;29;20232;-80
2023/01/03 12:28:00;;;;;;;5.53;5.13;;;;;;;9.81;87.64;97940.41;4970438;28;20332;-77
2023/01/03 12:31:02;;;;;;;6.03;5.73;;;;;;;9.71;86.62;97939.94;4977582;28;20199;-75
2023/01/03 12:33:39;;;;;;;5.77;5.47;;;;;;;9.83;84.76;97933.16;4976936;28;20176;-80
2023/01/03 12:36:21;;;;;;;8.60;8.00;;;;;;;9.66;83.83;97932.66;4976575;28;20582;-77
2023/01/03 12:39:31;;;;;;;11.47;10.83;;;;;;;9.81;83.11;97933.34;4972769;28;20189;-77
2023/01/03 12:42:16;;;;;;;19.83;18.73;;;;;;;9.75;82.17;97941.97;4957146;29;20321;-77
2023/01/03 12:44:47;;;;;;;22.43;21.27;;;;;;;10.02;81.61;97935.91;4957663;29;20173;-78
2023/01/03 12:47:28;;;;;;;18.67;17.70;;;;;;;9.92;81.21;97924.94;4959139;29;20341;-80
2023/01/03 12:50:04;;;;;;;20.20;19.07;;;;;;;9.69;81.53;97927.06;4970223;28;20196;-78
2023/01/03 12:52:32;;;;;;;22.53;21.40;;;;;;;9.80;82.07;97925.72;4976176;28;20184;-78
2023/01/03 12:55:18;;;;;;;26.43;24.83;;;;;;;9.79;82.18;97921.47;4968238;28;20727;-80
2023/01/03 12:58:04;;;;;;;19.53;18.47;;;;;;;9.96;81.51;97923.59;4955337;28;20193;-79
2023/01/03 13:00:51;;;;;;;15.77;14.83;;;;;;;9.75;81.85;97926.28;4957267;29;20204;-79